createdAt,value
2018-11-21T00:00:49.828Z,92.70
2018-11-21T00:03:38.192Z,92.70
2018-11-21T00:06:26.456Z,92.70
2018-11-21T00:09:14.644Z,92.70
2018-11-21T00:12:03.083Z,92.70
2018-11-21T00:17:45.109Z,92.70
2018-11-21T00:20:33.132Z,92.70
2018-11-21T00:23:21.528Z,92.70
2018-11-21T00:26:09.563Z,92.80
2018-11-21T00:28:57.652Z,92.70
2018-11-21T00:31:46.068Z,92.80
2018-11-21T00:34:34.573Z,92.80
2018-11-21T00:37:23.366Z,92.80
2018-11-21T00:40:11.988Z,92.80
2018-11-21T00:43:00.373Z,92.80
2018-11-21T00:45:48.709Z,92.80
2018-11-21T00:48:36.735Z,92.80
2018-11-21T00:51:24.755Z,92.80
2018-11-21T00:54:12.778Z,92.90
2018-11-21T01:00:09.390Z,92.90
2018-11-21T01:02:57.710Z,92.90
2018-11-21T01:05:45.911Z,92.90
2018-11-21T01:08:34.119Z,92.90
2018-11-21T01:11:22.471Z,92.90
2018-11-21T01:14:10.460Z,92.90
2018-11-21T01:16:58.860Z,92.90
2018-11-21T01:19:46.873Z,92.90
2018-11-21T01:22:34.868Z,92.90
2018-11-21T01:25:23.293Z,92.90
2018-11-21T01:28:11.312Z,92.90
2018-11-21T01:30:59.332Z,92.90
2018-11-21T01:33:47.721Z,92.90
2018-11-21T01:36:36.257Z,93.00
2018-11-21T01:39:24.285Z,92.90
2018-11-21T01:42:12.297Z,92.90
2018-11-21T01:45:00.317Z,92.90
2018-11-21T01:47:48.429Z,92.90
2018-11-21T01:50:36.762Z,93.00
2018-11-21T01:53:24.786Z,93.00
2018-11-21T01:56:12.902Z,93.00
2018-11-21T01:59:00.929Z,93.00
2018-11-21T02:01:48.909Z,93.00
2018-11-21T02:04:36.974Z,93.00
2018-11-21T02:07:24.962Z,93.10
2018-11-21T02:10:12.972Z,93.10
2018-11-21T02:13:01.305Z,93.00
2018-11-21T02:15:49.314Z,93.00
2018-11-21T02:18:37.322Z,93.00
2018-11-21T02:21:25.728Z,93.00
2018-11-21T02:24:13.734Z,93.00
2018-11-21T02:27:02.321Z,93.00
2018-11-21T02:29:50.354Z,93.00
2018-11-21T02:32:38.373Z,93.00
2018-11-21T02:35:26.755Z,93.00
2018-11-21T02:38:15.103Z,93.00
2018-11-21T02:41:03.124Z,93.00
2018-11-21T02:43:51.532Z,93.10
2018-11-21T02:46:39.537Z,93.10
2018-11-21T02:49:27.560Z,93.10
2018-11-21T02:52:15.952Z,93.10
2018-11-21T02:55:03.890Z,93.10
2018-11-21T02:57:52.611Z,93.10
2018-11-21T03:00:33.453Z,93.10
2018-11-21T03:03:14.372Z,93.10
2018-11-21T03:05:54.849Z,93.10
2018-11-21T03:08:35.552Z,93.20
2018-11-21T03:11:17.242Z,93.10
2018-11-21T03:13:58.229Z,93.20
2018-11-21T03:16:38.930Z,93.20
2018-11-21T03:19:20.204Z,93.20
2018-11-21T03:22:01.190Z,93.20
2018-11-21T03:24:41.868Z,93.20
2018-11-21T03:27:23.476Z,93.20
2018-11-21T03:30:05.884Z,93.20
2018-11-21T03:32:47.074Z,93.20
2018-11-21T03:35:27.803Z,93.20
2018-11-21T03:38:09.250Z,93.20
2018-11-21T03:40:49.719Z,93.20
2018-11-21T03:43:30.563Z,93.20
2018-11-21T03:46:11.048Z,93.20
2018-11-21T03:48:52.363Z,93.30
2018-11-21T03:51:33.733Z,93.30
2018-11-21T03:54:14.782Z,93.30
2018-11-21T03:56:56.351Z,93.30
2018-11-21T03:59:37.198Z,93.40
2018-11-21T04:02:18.375Z,93.40
2018-11-21T04:04:59.637Z,93.40
2018-11-21T04:07:40.696Z,93.30
2018-11-21T04:10:22.031Z,93.70
2018-11-21T04:13:03.102Z,93.40
2018-11-21T04:15:43.623Z,93.50
2018-11-21T04:18:25.273Z,93.40
2018-11-21T04:21:05.941Z,93.40
2018-11-21T04:23:47.100Z,93.40
2018-11-21T04:26:28.186Z,93.40
2018-11-21T04:29:09.696Z,93.40
2018-11-21T04:31:50.862Z,93.40
2018-11-21T04:34:31.828Z,93.40
2018-11-21T04:37:12.308Z,93.50
2018-11-21T04:39:53.683Z,93.50
2018-11-21T04:42:22.436Z,93.40
2018-11-21T04:44:51.148Z,93.50
2018-11-21T04:47:20.153Z,93.40
2018-11-21T04:49:49.096Z,93.40
2018-11-21T04:52:18.140Z,93.40
2018-11-21T04:54:47.169Z,93.50
2018-11-21T04:57:15.875Z,93.50
2018-11-21T04:59:44.555Z,93.50
2018-11-21T05:02:13.264Z,93.50
2018-11-21T05:04:42.557Z,93.60
2018-11-21T05:07:11.624Z,93.50
2018-11-21T05:09:40.698Z,93.50
2018-11-21T05:12:09.693Z,93.50
2018-11-21T05:14:38.712Z,93.50
2018-11-21T05:17:07.396Z,93.60
2018-11-21T05:19:36.130Z,93.60
2018-11-21T05:22:05.148Z,93.60
2018-11-21T05:24:33.851Z,93.60
2018-11-21T05:27:02.529Z,93.60
2018-11-21T05:29:31.234Z,93.60
2018-11-21T05:32:00.307Z,93.60
2018-11-21T05:34:29.009Z,93.90
2018-11-21T05:36:57.722Z,93.60
2018-11-21T05:39:26.798Z,93.60
2018-11-21T05:41:55.868Z,93.60
2018-11-21T05:44:26.980Z,93.60
2018-11-21T05:46:53.749Z,93.60
2018-11-21T05:49:21.926Z,93.60
2018-11-21T05:51:50.921Z,93.60
2018-11-21T05:54:20.043Z,93.60
2018-11-21T05:56:49.012Z,93.50
2018-11-21T05:59:17.711Z,93.50
2018-11-21T06:01:46.784Z,93.60
2018-11-21T06:04:15.486Z,93.50
2018-11-21T06:06:44.165Z,93.50
2018-11-21T06:09:13.650Z,93.50
2018-11-21T06:11:43.334Z,93.50
2018-11-21T06:14:12.404Z,93.50
2018-11-21T06:16:41.463Z,93.50
2018-11-21T06:19:10.484Z,93.50
2018-11-21T06:21:39.548Z,93.40
2018-11-21T06:24:08.246Z,93.40
2018-11-21T06:26:37.246Z,93.40
2018-11-21T06:29:05.936Z,93.40
2018-11-21T06:31:34.952Z,93.40
2018-11-21T06:34:04.012Z,93.30
2018-11-21T06:36:32.709Z,93.30
2018-11-21T06:39:01.682Z,93.30
2018-11-21T06:41:30.784Z,93.30
2018-11-21T06:43:59.448Z,93.20
2018-11-21T06:46:29.023Z,93.20
2018-11-21T06:48:58.065Z,93.20
2018-11-21T06:51:26.828Z,93.20
2018-11-21T06:53:55.490Z,93.10
2018-11-21T06:56:24.786Z,93.10
2018-11-21T06:58:55.233Z,93.10
2018-11-21T07:01:22.805Z,93.10
2018-11-21T07:03:51.488Z,93.00
2018-11-21T07:06:20.695Z,93.00
2018-11-21T07:08:49.715Z,92.90
2018-11-21T07:11:18.886Z,92.90
2018-11-21T07:13:47.572Z,92.90
2018-11-21T07:16:16.271Z,92.90
2018-11-21T07:18:45.257Z,92.90
2018-11-21T07:21:14.569Z,92.90
2018-11-21T07:23:43.589Z,92.90
2018-11-21T07:26:12.253Z,92.80
2018-11-21T07:28:41.070Z,92.80
2018-11-21T07:31:09.755Z,92.80
2018-11-21T07:33:38.463Z,92.80
2018-11-21T07:36:16.122Z,92.80
2018-11-21T07:38:45.143Z,92.80
2018-11-21T07:41:14.022Z,92.80
2018-11-21T07:43:43.143Z,92.80
2018-11-21T07:46:11.805Z,92.70
2018-11-21T07:48:40.495Z,92.70
2018-11-21T07:51:09.567Z,92.70
2018-11-21T07:53:38.302Z,92.70
2018-11-21T07:56:51.739Z,92.70
2018-11-21T07:59:20.823Z,92.70
2018-11-21T08:02:14.608Z,92.60
2018-11-21T08:04:59.680Z,92.60
2018-11-21T08:07:42.955Z,92.60
2018-11-21T08:10:30.743Z,92.50
2018-11-21T08:13:17.331Z,92.50
2018-11-21T08:16:05.148Z,92.50
2018-11-21T08:18:51.601Z,92.60
2018-11-21T08:21:42.206Z,92.40
2018-11-21T08:24:39.194Z,92.30
2018-11-21T08:27:25.441Z,92.30
2018-11-21T08:29:54.505Z,92.30
2018-11-21T08:32:23.603Z,92.30
2018-11-21T08:34:52.273Z,92.30
2018-11-21T08:37:20.976Z,92.60
2018-11-21T08:39:49.645Z,92.30
2018-11-21T08:42:18.348Z,92.30
2018-11-21T08:44:47.021Z,92.30
2018-11-21T08:47:16.043Z,92.20
2018-11-21T08:49:45.095Z,92.10
2018-11-21T08:52:14.128Z,92.20
2018-11-21T08:54:43.186Z,92.10
2018-11-21T08:57:24.102Z,92.10
2018-11-21T08:59:52.778Z,92.10
2018-11-21T09:02:21.468Z,92.10
2018-11-21T09:04:50.169Z,92.10
2018-11-21T09:07:18.879Z,92.00
2018-11-21T09:09:47.541Z,92.00
2018-11-21T09:12:16.314Z,91.90
2018-11-21T09:14:44.981Z,91.90
2018-11-21T09:17:13.687Z,91.90
2018-11-21T09:19:42.748Z,91.80
2018-11-21T09:22:11.586Z,92.20
2018-11-21T09:24:40.645Z,91.80
2018-11-21T09:27:09.662Z,91.80
2018-11-21T09:29:38.325Z,91.70
2018-11-21T09:32:07.466Z,91.70
2018-11-21T09:34:36.319Z,91.60
2018-11-21T09:37:05.439Z,91.60
2018-11-21T09:39:34.494Z,91.60
2018-11-21T09:42:03.202Z,91.60
2018-11-21T09:44:31.863Z,91.50
2018-11-21T09:47:00.580Z,91.50
2018-11-21T09:49:29.649Z,91.50
2018-11-21T09:51:58.340Z,91.40
2018-11-21T09:54:27.003Z,91.50
2018-11-21T09:56:55.662Z,91.40
2018-11-21T09:59:24.356Z,91.40
2018-11-21T10:02:29.600Z,91.30
2018-11-21T10:04:58.657Z,91.40
2018-11-21T10:07:27.725Z,91.30
2018-11-21T10:09:56.422Z,91.30
2018-11-21T10:12:25.402Z,91.30
2018-11-21T10:14:54.429Z,91.30
2018-11-21T10:17:23.099Z,91.20
2018-11-21T10:19:51.807Z,91.20
2018-11-21T10:22:20.863Z,91.20
2018-11-21T10:24:49.888Z,91.10
2018-11-21T10:27:18.558Z,91.10
2018-11-21T10:29:47.261Z,91.10
2018-11-21T10:32:15.934Z,91.10
2018-11-21T10:34:45.045Z,91.40
2018-11-21T10:37:13.703Z,91.10
2018-11-21T10:39:43.156Z,91.10
2018-11-21T10:42:12.632Z,91.00
2018-11-21T10:44:48.035Z,91.10
2018-11-21T10:47:17.235Z,91.10
2018-11-21T10:49:46.377Z,91.00
2018-11-21T10:52:15.443Z,90.90
2018-11-21T10:54:44.142Z,90.90
2018-11-21T10:57:12.816Z,90.90
2018-11-21T10:59:42.112Z,90.90
2018-11-21T11:02:16.699Z,90.80
2018-11-21T11:05:14.044Z,90.80
2018-11-21T11:08:07.892Z,90.70
2018-11-21T11:10:54.683Z,90.70
2018-11-21T11:13:54.348Z,90.70
2018-11-21T11:16:42.130Z,90.60
2018-11-21T11:19:28.943Z,90.60
2018-11-21T11:22:15.290Z,90.60
2018-11-21T11:25:03.090Z,90.50
2018-11-21T11:27:49.854Z,90.50
2018-11-21T11:30:43.822Z,90.40
2018-11-21T11:33:40.655Z,90.40
2018-11-21T11:36:43.399Z,90.40
2018-11-21T11:39:40.280Z,90.40
2018-11-21T11:42:33.763Z,90.30
2018-11-21T11:45:25.802Z,90.20
2018-11-21T11:48:28.515Z,90.10
2018-11-21T11:51:31.522Z,90.20
2018-11-21T11:54:17.880Z,90.20
2018-11-21T11:57:01.404Z,90.10
2018-11-21T11:59:47.840Z,90.10
2018-11-21T12:02:34.012Z,90.20
2018-11-21T12:05:20.392Z,90.10
2018-11-21T12:08:17.506Z,90.10
2018-11-21T12:11:05.326Z,90.10
2018-11-21T12:13:51.800Z,90.00
2018-11-21T12:16:42.053Z,90.00
2018-11-21T12:19:28.813Z,90.00
2018-11-21T12:22:15.537Z,89.90
2018-11-21T12:25:12.153Z,89.70
2018-11-21T12:28:03.328Z,89.80
2018-11-21T12:30:48.073Z,89.80
2018-11-21T12:33:35.857Z,89.60
2018-11-21T12:36:22.576Z,89.60
2018-11-21T12:39:08.917Z,89.60
2018-11-21T12:41:55.097Z,89.50
2018-11-21T12:44:45.727Z,89.40
2018-11-21T12:47:26.863Z,89.40
2018-11-21T12:50:13.045Z,89.40
2018-11-21T12:53:06.676Z,89.40
2018-11-21T12:55:55.222Z,89.40
2018-11-21T12:58:35.749Z,89.30
2018-11-21T13:01:32.141Z,89.20
2018-11-21T13:04:13.353Z,89.30
2018-11-21T13:07:07.945Z,89.40
2018-11-21T13:09:56.832Z,89.40
2018-11-21T13:12:44.713Z,89.40
2018-11-21T13:19:00.048Z,89.30
2018-11-21T13:22:05.805Z,89.30
2018-11-21T13:24:53.589Z,89.20
2018-11-21T13:27:56.496Z,89.30
2018-11-21T13:30:44.805Z,89.40
2018-11-21T13:33:33.053Z,89.40
2018-11-21T13:36:23.877Z,89.30
2018-11-21T13:39:10.377Z,89.30
2018-11-21T13:41:57.290Z,89.30
2018-11-21T13:44:51.199Z,89.20
2018-11-21T13:47:44.790Z,89.20
2018-11-21T13:50:41.659Z,89.40
2018-11-21T13:53:35.521Z,89.30
2018-11-21T13:56:34.923Z,89.40
2018-11-21T13:59:03.626Z,89.30
2018-11-21T14:01:32.286Z,89.40
2018-11-21T14:04:00.976Z,89.40
2018-11-21T14:06:30.051Z,89.50
2018-11-21T14:08:59.151Z,89.50
2018-11-21T14:11:28.216Z,89.60
2018-11-21T14:14:01.316Z,89.80
2018-11-21T14:16:25.993Z,89.70
2018-11-21T14:18:54.688Z,89.60
2018-11-21T14:21:23.356Z,90.20
2018-11-21T14:23:52.062Z,89.80
2018-11-21T14:26:21.180Z,89.80
2018-11-21T14:28:50.678Z,89.80
2018-11-21T14:31:19.386Z,89.90
2018-11-21T14:33:48.302Z,89.90
2018-11-21T14:36:17.003Z,90.00
2018-11-21T14:38:46.616Z,89.80
2018-11-21T14:41:15.709Z,90.00
2018-11-21T14:43:44.724Z,89.80
2018-11-21T14:46:13.432Z,90.00
2018-11-21T14:48:43.032Z,90.00
2018-11-21T14:51:12.202Z,90.00
2018-11-21T14:53:41.112Z,90.00
2018-11-21T14:56:10.225Z,89.90
2018-11-21T14:58:38.894Z,89.90
2018-11-21T15:01:07.586Z,89.90
2018-11-21T15:03:36.668Z,89.90
2018-11-21T15:06:05.820Z,89.90
2018-11-21T15:08:34.488Z,90.00
2018-11-21T15:11:03.183Z,90.10
2018-11-21T15:13:31.848Z,90.00
2018-11-21T15:16:00.848Z,90.00
2018-11-21T15:18:30.014Z,90.00
2018-11-21T15:20:58.725Z,90.00
2018-11-21T15:23:27.397Z,90.00
2018-11-21T15:25:56.103Z,90.00
2018-11-21T15:28:25.171Z,90.00
2018-11-21T15:30:54.193Z,90.30
2018-11-21T15:33:22.859Z,90.00
2018-11-21T15:35:51.581Z,90.00
2018-11-21T15:38:20.631Z,90.00
2018-11-21T15:40:49.343Z,90.00
2018-11-21T15:43:18.034Z,90.40
2018-11-21T15:45:47.142Z,90.10
2018-11-21T15:48:16.233Z,90.10
2018-11-21T15:50:44.909Z,90.10
2018-11-21T15:53:13.622Z,90.20
2018-11-21T15:55:42.670Z,90.10
2018-11-21T15:58:11.380Z,90.10
2018-11-21T16:00:40.455Z,90.20
2018-11-21T16:03:10.422Z,90.20
2018-11-21T16:05:39.170Z,90.20
2018-11-21T16:08:08.215Z,90.20
2018-11-21T16:10:39.068Z,90.20
